sensor_id;sensor_type;location;lat;lon;timestamp;P1;durP1;ratioP1;P2;durP2;ratioP2
26822;SDS011;14852;51.910;8.878;2023-06-26T00:01:25;5.93;;;5.43;;
26822;SDS011;14852;51.910;8.878;2023-06-26T00:03:54;6.72;;;6.07;;
26822;SDS011;14852;51.910;8.878;2023-06-26T00:06:20;7.15;;;6.45;;
26822;SDS011;14852;51.910;8.878;2023-06-26T00:08:49;6.32;;;5.35;;
26822;SDS011;14852;51.910;8.878;2023-06-26T00:11:15;6.95;;;6.25;;
26822;SDS011;14852;51.910;8.878;2023-06-26T00:13:41;6.40;;;5.80;;
26822;SDS011;14852;51.910;8.878;2023-06-26T00:16:07;7.00;;;5.53;;
26822;SDS011;14852;51.910;8.878;2023-06-26T00:18:33;7.45;;;5.75;;
26822;SDS011;14852;51.910;8.878;2023-06-26T00:20:58;7.20;;;6.50;;
26822;SDS011;14852;51.910;8.878;2023-06-26T00:23:24;7.03;;;5.50;;
26822;SDS011;14852;51.910;8.878;2023-06-26T00:25:50;7.05;;;6.35;;
26822;SDS011;14852;51.910;8.878;2023-06-26T00:28:16;7.22;;;6.40;;
26822;SDS011;14852;51.910;8.878;2023-06-26T00:30:41;7.20;;;6.53;;
26822;SDS011;14852;51.910;8.878;2023-06-26T00:33:07;6.50;;;5.78;;
26822;SDS011;14852;51.910;8.878;2023-06-26T00:35:33;7.03;;;6.32;;
26822;SDS011;14852;51.910;8.878;2023-06-26T00:38:00;7.38;;;6.68;;
26822;SDS011;14852;51.910;8.878;2023-06-26T00:40:27;7.18;;;6.53;;
26822;SDS011;14852;51.910;8.878;2023-06-26T00:42:53;7.85;;;6.18;;
26822;SDS011;14852;51.910;8.878;2023-06-26T00:45:20;7.35;;;6.35;;
26822;SDS011;14852;51.910;8.878;2023-06-26T00:47:46;7.32;;;6.57;;
26822;SDS011;14852;51.910;8.878;2023-06-26T00:50:12;7.30;;;6.50;;
26822;SDS011;14852;51.910;8.878;2023-06-26T00:52:40;7.47;;;6.63;;
26822;SDS011;14852;51.910;8.878;2023-06-26T00:55:06;6.82;;;6.05;;
26822;SDS011;14852;51.910;8.878;2023-06-26T00:57:35;7.35;;;6.30;;
26822;SDS011;14852;51.910;8.878;2023-06-26T01:00:01;7.03;;;6.32;;
26822;SDS011;14852;51.910;8.878;2023-06-26T01:02:29;7.03;;;6.32;;
26822;SDS011;14852;51.910;8.878;2023-06-26T01:04:58;6.97;;;5.57;;
26822;SDS011;14852;51.910;8.878;2023-06-26T01:07:28;9.35;;;6.15;;
26822;SDS011;14852;51.910;8.878;2023-06-26T01:09:54;8.13;;;5.68;;
26822;SDS011;14852;51.910;8.878;2023-06-26T01:12:20;7.55;;;5.95;;
26822;SDS011;14852;51.910;8.878;2023-06-26T01:14:47;7.07;;;6.15;;
26822;SDS011;14852;51.910;8.878;2023-06-26T01:17:13;7.90;;;6.60;;
26822;SDS011;14852;51.910;8.878;2023-06-26T01:19:40;7.70;;;6.90;;
26822;SDS011;14852;51.910;8.878;2023-06-26T01:22:33;6.72;;;6.13;;
26822;SDS011;14852;51.910;8.878;2023-06-26T01:25:21;7.78;;;6.40;;
26822;SDS011;14852;51.910;8.878;2023-06-26T01:28:03;6.53;;;5.65;;
26822;SDS011;14852;51.910;8.878;2023-06-26T01:30:41;6.15;;;5.53;;
26822;SDS011;14852;51.910;8.878;2023-06-26T01:33:09;7.13;;;6.43;;
26822;SDS011;14852;51.910;8.878;2023-06-26T01:35:37;9.70;;;6.60;;
26822;SDS011;14852;51.910;8.878;2023-06-26T01:38:15;7.00;;;5.50;;
26822;SDS011;14852;51.910;8.878;2023-06-26T01:40:42;7.57;;;6.80;;
26822;SDS011;14852;51.910;8.878;2023-06-26T01:43:19;6.93;;;6.20;;
26822;SDS011;14852;51.910;8.878;2023-06-26T01:46:01;7.85;;;6.53;;
26822;SDS011;14852;51.910;8.878;2023-06-26T01:48:38;7.93;;;6.82;;
26822;SDS011;14852;51.910;8.878;2023-06-26T01:51:20;8.13;;;6.28;;
26822;SDS011;14852;51.910;8.878;2023-06-26T01:53:52;7.57;;;6.85;;
26822;SDS011;14852;51.910;8.878;2023-06-26T01:56:21;7.65;;;6.55;;
26822;SDS011;14852;51.910;8.878;2023-06-26T01:58:50;9.20;;;7.05;;
26822;SDS011;14852;51.910;8.878;2023-06-26T02:01:20;8.23;;;7.43;;
26822;SDS011;14852;51.910;8.878;2023-06-26T02:03:46;9.55;;;6.35;;
26822;SDS011;14852;51.910;8.878;2023-06-26T02:06:12;7.82;;;7.05;;
26822;SDS011;14852;51.910;8.878;2023-06-26T02:08:38;8.73;;;7.93;;
26822;SDS011;14852;51.910;8.878;2023-06-26T02:11:05;7.80;;;7.00;;
26822;SDS011;14852;51.910;8.878;2023-06-26T02:13:31;8.63;;;7.63;;
26822;SDS011;14852;51.910;8.878;2023-06-26T02:15:57;13.57;;;9.18;;
26822;SDS011;14852;51.910;8.878;2023-06-26T02:18:23;8.75;;;7.85;;
26822;SDS011;14852;51.910;8.878;2023-06-26T02:20:49;9.98;;;9.02;;
26822;SDS011;14852;51.910;8.878;2023-06-26T02:23:15;9.63;;;8.75;;
26822;SDS011;14852;51.910;8.878;2023-06-26T02:25:41;9.63;;;8.63;;
26822;SDS011;14852;51.910;8.878;2023-06-26T02:28:08;10.00;;;9.00;;
26822;SDS011;14852;51.910;8.878;2023-06-26T02:30:35;9.45;;;8.55;;
26822;SDS011;14852;51.910;8.878;2023-06-26T02:33:00;10.23;;;9.05;;
26822;SDS011;14852;51.910;8.878;2023-06-26T02:35:26;9.93;;;8.98;;
26822;SDS011;14852;51.910;8.878;2023-06-26T02:37:52;9.25;;;8.35;;
26822;SDS011;14852;51.910;8.878;2023-06-26T02:40:18;20.23;;;9.88;;
26822;SDS011;14852;51.910;8.878;2023-06-26T02:42:43;10.00;;;8.65;;
26822;SDS011;14852;51.910;8.878;2023-06-26T02:45:10;8.90;;;8.13;;
26822;SDS011;14852;51.910;8.878;2023-06-26T02:47:36;9.45;;;8.55;;
26822;SDS011;14852;51.910;8.878;2023-06-26T02:50:06;9.25;;;8.35;;
26822;SDS011;14852;51.910;8.878;2023-06-26T02:52:52;10.23;;;9.15;;
26822;SDS011;14852;51.910;8.878;2023-06-26T02:55:20;8.93;;;8.02;;
26822;SDS011;14852;51.910;8.878;2023-06-26T02:57:46;8.57;;;7.75;;
26822;SDS011;14852;51.910;8.878;2023-06-26T03:00:12;8.60;;;7.68;;
26822;SDS011;14852;51.910;8.878;2023-06-26T03:05:15;8.27;;;7.47;;
26822;SDS011;14852;51.910;8.878;2023-06-26T03:07:42;8.50;;;7.60;;
26822;SDS011;14852;51.910;8.878;2023-06-26T03:10:09;8.65;;;7.32;;
26822;SDS011;14852;51.910;8.878;2023-06-26T03:12:35;9.77;;;7.68;;
26822;SDS011;14852;51.910;8.878;2023-06-26T03:15:00;9.57;;;7.53;;
26822;SDS011;14852;51.910;8.878;2023-06-26T03:17:26;8.57;;;7.70;;
26822;SDS011;14852;51.910;8.878;2023-06-26T03:19:57;8.38;;;7.55;;
26822;SDS011;14852;51.910;8.878;2023-06-26T03:22:29;10.88;;;7.88;;
26822;SDS011;14852;51.910;8.878;2023-06-26T03:24:55;9.77;;;8.88;;
26822;SDS011;14852;51.910;8.878;2023-06-26T03:27:21;10.10;;;9.10;;
26822;SDS011;14852;51.910;8.878;2023-06-26T03:29:48;8.25;;;7.53;;
26822;SDS011;14852;51.910;8.878;2023-06-26T03:32:15;9.85;;;8.80;;
26822;SDS011;14852;51.910;8.878;2023-06-26T03:34:41;9.00;;;8.20;;
26822;SDS011;14852;51.910;8.878;2023-06-26T03:37:06;9.52;;;8.63;;
26822;SDS011;14852;51.910;8.878;2023-06-26T03:39:32;10.48;;;8.77;;
26822;SDS011;14852;51.910;8.878;2023-06-26T03:41:58;9.77;;;8.77;;
26822;SDS011;14852;51.910;8.878;2023-06-26T03:44:26;9.73;;;8.55;;
26822;SDS011;14852;51.910;8.878;2023-06-26T03:46:52;9.50;;;8.45;;
26822;SDS011;14852;51.910;8.878;2023-06-26T03:49:19;9.00;;;8.10;;
26822;SDS011;14852;51.910;8.878;2023-06-26T03:51:45;9.45;;;8.40;;
26822;SDS011;14852;51.910;8.878;2023-06-26T03:54:11;8.25;;;7.50;;
26822;SDS011;14852;51.910;8.878;2023-06-26T03:56:37;10.77;;;8.18;;
26822;SDS011;14852;51.910;8.878;2023-06-26T03:59:04;8.90;;;8.00;;
26822;SDS011;14852;51.910;8.878;2023-06-26T04:01:30;10.55;;;8.23;;
26822;SDS011;14852;51.910;8.878;2023-06-26T04:03:56;9.02;;;7.97;;
26822;SDS011;14852;51.910;8.878;2023-06-26T04:06:22;9.20;;;8.30;;
26822;SDS011;14852;51.910;8.878;2023-06-26T04:08:48;9.65;;;8.30;;
26822;SDS011;14852;51.910;8.878;2023-06-26T04:11:15;8.40;;;7.60;;
26822;SDS011;14852;51.910;8.878;2023-06-26T04:13:40;9.32;;;8.32;;
26822;SDS011;14852;51.910;8.878;2023-06-26T04:16:06;8.43;;;7.63;;
26822;SDS011;14852;51.910;8.878;2023-06-26T04:18:32;9.30;;;8.07;;
26822;SDS011;14852;51.910;8.878;2023-06-26T04:21:08;8.27;;;7.47;;
26822;SDS011;14852;51.910;8.878;2023-06-26T04:23:38;9.73;;;8.73;;
26822;SDS011;14852;51.910;8.878;2023-06-26T04:26:05;10.75;;;7.68;;
26822;SDS011;14852;51.910;8.878;2023-06-26T04:28:32;9.43;;;8.13;;
26822;SDS011;14852;51.910;8.878;2023-06-26T04:30:59;7.70;;;6.88;;
26822;SDS011;14852;51.910;8.878;2023-06-26T04:33:28;8.55;;;7.18;;
26822;SDS011;14852;51.910;8.878;2023-06-26T04:35:54;8.98;;;8.10;;
26822;SDS011;14852;51.910;8.878;2023-06-26T04:38:20;9.35;;;7.97;;
26822;SDS011;14852;51.910;8.878;2023-06-26T04:40:46;8.43;;;7.63;;
26822;SDS011;14852;51.910;8.878;2023-06-26T04:43:13;8.70;;;7.90;;
26822;SDS011;14852;51.910;8.878;2023-06-26T04:45:39;8.43;;;7.45;;
26822;SDS011;14852;51.910;8.878;2023-06-26T04:48:05;7.53;;;6.82;;
26822;SDS011;14852;51.910;8.878;2023-06-26T04:50:31;11.23;;;6.68;;
26822;SDS011;14852;51.910;8.878;2023-06-26T04:52:58;7.07;;;6.32;;
26822;SDS011;14852;51.910;8.878;2023-06-26T04:55:24;9.25;;;6.03;;
26822;SDS011;14852;51.910;8.878;2023-06-26T04:57:50;6.95;;;5.50;;
26822;SDS011;14852;51.910;8.878;2023-06-26T05:00:16;5.65;;;5.15;;
26822;SDS011;14852;51.910;8.878;2023-06-26T05:02:43;4.82;;;4.22;;
26822;SDS011;14852;51.910;8.878;2023-06-26T05:05:09;5.55;;;5.05;;
26822;SDS011;14852;51.910;8.878;2023-06-26T05:07:35;5.32;;;4.82;;
26822;SDS011;14852;51.910;8.878;2023-06-26T05:10:01;5.97;;;4.88;;
26822;SDS011;14852;51.910;8.878;2023-06-26T05:12:27;5.20;;;4.70;;
26822;SDS011;14852;51.910;8.878;2023-06-26T05:14:53;5.60;;;5.00;;
26822;SDS011;14852;51.910;8.878;2023-06-26T05:17:19;5.03;;;4.45;;
26822;SDS011;14852;51.910;8.878;2023-06-26T05:19:45;5.72;;;5.13;;
26822;SDS011;14852;51.910;8.878;2023-06-26T05:22:12;5.20;;;4.57;;
26822;SDS011;14852;51.910;8.878;2023-06-26T05:24:38;5.95;;;4.97;;
26822;SDS011;14852;51.910;8.878;2023-06-26T05:27:05;5.07;;;4.57;;
26822;SDS011;14852;51.910;8.878;2023-06-26T05:29:32;5.20;;;4.65;;
26822;SDS011;14852;51.910;8.878;2023-06-26T05:31:58;5.70;;;5.10;;
26822;SDS011;14852;51.910;8.878;2023-06-26T05:34:25;6.35;;;5.75;;
26822;SDS011;14852;51.910;8.878;2023-06-26T05:36:59;5.93;;;4.97;;
26822;SDS011;14852;51.910;8.878;2023-06-26T05:39:26;5.25;;;4.75;;
26822;SDS011;14852;51.910;8.878;2023-06-26T05:41:52;4.90;;;4.50;;
26822;SDS011;14852;51.910;8.878;2023-06-26T05:44:18;5.30;;;4.75;;
26822;SDS011;14852;51.910;8.878;2023-06-26T05:46:45;6.00;;;4.60;;
26822;SDS011;14852;51.910;8.878;2023-06-26T05:49:11;5.57;;;5.07;;
26822;SDS011;14852;51.910;8.878;2023-06-26T05:51:37;4.68;;;4.28;;
26822;SDS011;14852;51.910;8.878;2023-06-26T05:54:03;5.15;;;4.65;;
26822;SDS011;14852;51.910;8.878;2023-06-26T05:56:29;5.70;;;5.13;;
26822;SDS011;14852;51.910;8.878;2023-06-26T05:58:55;7.25;;;5.05;;
26822;SDS011;14852;51.910;8.878;2023-06-26T06:01:22;5.60;;;5.13;;
26822;SDS011;14852;51.910;8.878;2023-06-26T06:03:49;4.60;;;4.20;;
26822;SDS011;14852;51.910;8.878;2023-06-26T06:06:15;16.33;;;5.68;;
26822;SDS011;14852;51.910;8.878;2023-06-26T06:08:41;5.40;;;4.90;;
26822;SDS011;14852;51.910;8.878;2023-06-26T06:11:07;4.97;;;4.47;;
26822;SDS011;14852;51.910;8.878;2023-06-26T06:13:32;8.45;;;4.78;;
26822;SDS011;14852;51.910;8.878;2023-06-26T06:15:58;5.10;;;4.60;;
26822;SDS011;14852;51.910;8.878;2023-06-26T06:18:24;4.88;;;4.43;;
26822;SDS011;14852;51.910;8.878;2023-06-26T06:20:50;8.70;;;5.45;;
26822;SDS011;14852;51.910;8.878;2023-06-26T06:23:15;5.95;;;4.78;;
26822;SDS011;14852;51.910;8.878;2023-06-26T06:25:41;5.20;;;4.70;;
26822;SDS011;14852;51.910;8.878;2023-06-26T06:28:07;6.00;;;5.50;;
26822;SDS011;14852;51.910;8.878;2023-06-26T06:30:33;5.35;;;4.90;;
26822;SDS011;14852;51.910;8.878;2023-06-26T06:32:58;5.63;;;5.13;;
26822;SDS011;14852;51.910;8.878;2023-06-26T06:35:24;6.95;;;6.07;;
26822;SDS011;14852;51.910;8.878;2023-06-26T06:37:50;5.72;;;5.13;;
26822;SDS011;14852;51.910;8.878;2023-06-26T06:40:16;6.20;;;5.60;;
26822;SDS011;14852;51.910;8.878;2023-06-26T06:42:41;5.82;;;5.32;;
26822;SDS011;14852;51.910;8.878;2023-06-26T06:45:07;5.93;;;5.32;;
26822;SDS011;14852;51.910;8.878;2023-06-26T06:47:34;5.97;;;5.38;;
26822;SDS011;14852;51.910;8.878;2023-06-26T06:50:01;5.93;;;5.30;;
26822;SDS011;14852;51.910;8.878;2023-06-26T06:52:34;6.95;;;5.40;;
26822;SDS011;14852;51.910;8.878;2023-06-26T06:57:34;7.07;;;5.50;;
26822;SDS011;14852;51.910;8.878;2023-06-26T07:00:07;6.03;;;5.53;;
26822;SDS011;14852;51.910;8.878;2023-06-26T07:02:39;6.43;;;5.88;;
26822;SDS011;14852;51.910;8.878;2023-06-26T07:05:08;5.60;;;5.10;;
26822;SDS011;14852;51.910;8.878;2023-06-26T07:07:35;6.38;;;5.63;;
26822;SDS011;14852;51.910;8.878;2023-06-26T07:10:03;6.28;;;5.40;;
26822;SDS011;14852;51.910;8.878;2023-06-26T07:12:35;5.75;;;5.13;;
26822;SDS011;14852;51.910;8.878;2023-06-26T07:15:01;8.73;;;5.82;;
26822;SDS011;14852;51.910;8.878;2023-06-26T07:17:29;6.65;;;5.28;;
26822;SDS011;14852;51.910;8.878;2023-06-26T07:19:59;6.18;;;5.57;;
26822;SDS011;14852;51.910;8.878;2023-06-26T07:22:26;7.00;;;5.80;;
26822;SDS011;14852;51.910;8.878;2023-06-26T07:24:52;6.57;;;5.82;;
26822;SDS011;14852;51.910;8.878;2023-06-26T07:27:18;7.40;;;5.78;;
26822;SDS011;14852;51.910;8.878;2023-06-26T07:29:45;7.88;;;6.63;;
26822;SDS011;14852;51.910;8.878;2023-06-26T07:32:10;6.70;;;6.10;;
26822;SDS011;14852;51.910;8.878;2023-06-26T07:34:36;6.15;;;5.55;;
26822;SDS011;14852;51.910;8.878;2023-06-26T07:37:02;6.47;;;5.88;;
26822;SDS011;14852;51.910;8.878;2023-06-26T07:39:29;6.35;;;5.75;;
26822;SDS011;14852;51.910;8.878;2023-06-26T07:41:55;6.63;;;5.93;;
26822;SDS011;14852;51.910;8.878;2023-06-26T07:44:23;6.47;;;5.88;;
26822;SDS011;14852;51.910;8.878;2023-06-26T07:46:49;7.63;;;6.25;;
26822;SDS011;14852;51.910;8.878;2023-06-26T07:49:14;6.55;;;5.85;;
26822;SDS011;14852;51.910;8.878;2023-06-26T07:51:40;6.65;;;5.95;;
26822;SDS011;14852;51.910;8.878;2023-06-26T07:54:06;6.43;;;5.70;;
26822;SDS011;14852;51.910;8.878;2023-06-26T07:56:34;7.13;;;6.30;;
26822;SDS011;14852;51.910;8.878;2023-06-26T07:59:19;8.00;;;7.18;;
26822;SDS011;14852;51.910;8.878;2023-06-26T08:01:46;6.18;;;5.55;;
26822;SDS011;14852;51.910;8.878;2023-06-26T08:04:11;6.13;;;5.30;;
26822;SDS011;14852;51.910;8.878;2023-06-26T08:06:37;6.95;;;5.82;;
26822;SDS011;14852;51.910;8.878;2023-06-26T08:09:06;7.72;;;5.30;;
26822;SDS011;14852;51.910;8.878;2023-06-26T08:11:33;6.57;;;6.00;;
26822;SDS011;14852;51.910;8.878;2023-06-26T08:13:59;5.82;;;5.22;;
26822;SDS011;14852;51.910;8.878;2023-06-26T08:16:25;8.82;;;6.28;;
26822;SDS011;14852;51.910;8.878;2023-06-26T08:18:54;5.72;;;5.20;;
26822;SDS011;14852;51.910;8.878;2023-06-26T08:21:20;7.45;;;6.32;;
26822;SDS011;14852;51.910;8.878;2023-06-26T08:23:45;5.60;;;5.10;;
26822;SDS011;14852;51.910;8.878;2023-06-26T08:26:11;6.95;;;5.93;;
26822;SDS011;14852;51.910;8.878;2023-06-26T08:28:37;6.55;;;5.93;;
26822;SDS011;14852;51.910;8.878;2023-06-26T08:31:03;7.25;;;6.53;;
26822;SDS011;14852;51.910;8.878;2023-06-26T08:33:29;6.97;;;6.28;;
26822;SDS011;14852;51.910;8.878;2023-06-26T08:35:55;6.63;;;5.80;;
26822;SDS011;14852;51.910;8.878;2023-06-26T08:38:20;9.52;;;7.22;;
26822;SDS011;14852;51.910;8.878;2023-06-26T08:40:46;7.90;;;6.50;;
26822;SDS011;14852;51.910;8.878;2023-06-26T08:43:13;7.03;;;5.78;;
26822;SDS011;14852;51.910;8.878;2023-06-26T08:45:39;7.10;;;6.40;;
26822;SDS011;14852;51.910;8.878;2023-06-26T08:48:07;8.32;;;6.95;;
26822;SDS011;14852;51.910;8.878;2023-06-26T08:50:34;7.63;;;6.75;;
26822;SDS011;14852;51.910;8.878;2023-06-26T08:55:59;8.90;;;7.22;;
26822;SDS011;14852;51.910;8.878;2023-06-26T08:58:27;7.05;;;5.78;;
26822;SDS011;14852;51.910;8.878;2023-06-26T09:00:52;8.00;;;6.90;;
26822;SDS011;14852;51.910;8.878;2023-06-26T09:03:21;9.43;;;7.18;;
26822;SDS011;14852;51.910;8.878;2023-06-26T09:05:46;9.27;;;6.88;;
26822;SDS011;14852;51.910;8.878;2023-06-26T09:08:12;8.70;;;6.43;;
26822;SDS011;14852;51.910;8.878;2023-06-26T09:10:38;8.10;;;7.18;;
26822;SDS011;14852;51.910;8.878;2023-06-26T09:13:04;8.23;;;6.85;;
26822;SDS011;14852;51.910;8.878;2023-06-26T09:15:42;7.50;;;6.80;;
26822;SDS011;14852;51.910;8.878;2023-06-26T09:18:09;8.43;;;7.53;;
26822;SDS011;14852;51.910;8.878;2023-06-26T09:20:35;10.55;;;8.20;;
26822;SDS011;14852;51.910;8.878;2023-06-26T09:23:01;9.85;;;7.78;;
26822;SDS011;14852;51.910;8.878;2023-06-26T09:25:27;9.05;;;8.13;;
26822;SDS011;14852;51.910;8.878;2023-06-26T09:27:54;8.73;;;7.18;;
26822;SDS011;14852;51.910;8.878;2023-06-26T09:30:21;7.68;;;6.88;;
26822;SDS011;14852;51.910;8.878;2023-06-26T09:32:47;7.65;;;6.90;;
26822;SDS011;14852;51.910;8.878;2023-06-26T09:35:14;9.95;;;7.35;;
26822;SDS011;14852;51.910;8.878;2023-06-26T09:37:40;8.35;;;6.45;;
26822;SDS011;14852;51.910;8.878;2023-06-26T09:40:06;8.20;;;7.00;;
26822;SDS011;14852;51.910;8.878;2023-06-26T09:42:33;8.15;;;6.95;;
26822;SDS011;14852;51.910;8.878;2023-06-26T09:44:59;9.95;;;6.97;;
26822;SDS011;14852;51.910;8.878;2023-06-26T09:47:25;10.77;;;6.68;;
26822;SDS011;14852;51.910;8.878;2023-06-26T09:49:50;8.38;;;6.70;;
26822;SDS011;14852;51.910;8.878;2023-06-26T09:52:17;8.55;;;6.82;;
26822;SDS011;14852;51.910;8.878;2023-06-26T09:54:44;9.07;;;7.57;;
26822;SDS011;14852;51.910;8.878;2023-06-26T09:57:12;7.97;;;6.55;;
26822;SDS011;14852;51.910;8.878;2023-06-26T09:59:42;7.35;;;6.28;;
26822;SDS011;14852;51.910;8.878;2023-06-26T10:02:10;7.25;;;6.55;;
26822;SDS011;14852;51.910;8.878;2023-06-26T10:04:36;7.53;;;6.38;;
26822;SDS011;14852;51.910;8.878;2023-06-26T10:07:06;6.85;;;6.07;;
26822;SDS011;14852;51.910;8.878;2023-06-26T10:09:41;12.73;;;7.18;;
26822;SDS011;14852;51.910;8.878;2023-06-26T10:12:23;6.85;;;5.70;;
26822;SDS011;14852;51.910;8.878;2023-06-26T10:14:58;8.30;;;6.50;;
26822;SDS011;14852;51.910;8.878;2023-06-26T10:17:27;7.43;;;6.22;;
26822;SDS011;14852;51.910;8.878;2023-06-26T10:19:55;8.35;;;5.55;;
26822;SDS011;14852;51.910;8.878;2023-06-26T10:22:27;7.28;;;6.20;;
26822;SDS011;14852;51.910;8.878;2023-06-26T10:24:58;7.53;;;5.80;;
26822;SDS011;14852;51.910;8.878;2023-06-26T10:27:27;6.93;;;5.90;;
26822;SDS011;14852;51.910;8.878;2023-06-26T10:30:00;7.25;;;5.65;;
26822;SDS011;14852;51.910;8.878;2023-06-26T10:32:30;8.38;;;5.82;;
26822;SDS011;14852;51.910;8.878;2023-06-26T10:34:57;9.13;;;5.75;;
26822;SDS011;14852;51.910;8.878;2023-06-26T10:37:40;8.02;;;5.97;;
26822;SDS011;14852;51.910;8.878;2023-06-26T10:40:10;8.45;;;6.03;;
26822;SDS011;14852;51.910;8.878;2023-06-26T10:42:38;6.30;;;4.75;;
26822;SDS011;14852;51.910;8.878;2023-06-26T10:45:16;6.40;;;4.90;;
26822;SDS011;14852;51.910;8.878;2023-06-26T10:47:48;5.80;;;5.10;;
26822;SDS011;14852;51.910;8.878;2023-06-26T10:50:22;7.32;;;5.43;;
26822;SDS011;14852;51.910;8.878;2023-06-26T10:55:55;7.93;;;4.82;;
26822;SDS011;14852;51.910;8.878;2023-06-26T10:58:27;5.55;;;4.03;;
26822;SDS011;14852;51.910;8.878;2023-06-26T11:03:38;6.97;;;4.97;;
26822;SDS011;14852;51.910;8.878;2023-06-26T11:06:08;7.47;;;5.28;;
26822;SDS011;14852;51.910;8.878;2023-06-26T11:08:52;6.63;;;4.82;;
26822;SDS011;14852;51.910;8.878;2023-06-26T11:14:20;7.93;;;5.40;;
26822;SDS011;14852;51.910;8.878;2023-06-26T11:16:49;4.88;;;4.03;;
26822;SDS011;14852;51.910;8.878;2023-06-26T11:19:16;6.55;;;5.18;;
26822;SDS011;14852;51.910;8.878;2023-06-26T11:21:43;7.63;;;5.75;;
26822;SDS011;14852;51.910;8.878;2023-06-26T11:24:10;5.93;;;4.75;;
26822;SDS011;14852;51.910;8.878;2023-06-26T11:26:38;7.50;;;4.35;;
26822;SDS011;14852;51.910;8.878;2023-06-26T11:29:05;7.28;;;5.53;;
26822;SDS011;14852;51.910;8.878;2023-06-26T11:31:31;5.57;;;4.80;;
26822;SDS011;14852;51.910;8.878;2023-06-26T11:33:59;7.15;;;4.75;;
26822;SDS011;14852;51.910;8.878;2023-06-26T11:36:26;9.52;;;4.97;;
26822;SDS011;14852;51.910;8.878;2023-06-26T11:38:54;4.85;;;4.15;;
26822;SDS011;14852;51.910;8.878;2023-06-26T11:41:22;6.95;;;4.57;;
26822;SDS011;14852;51.910;8.878;2023-06-26T11:43:55;5.45;;;4.18;;
26822;SDS011;14852;51.910;8.878;2023-06-26T11:46:26;5.40;;;3.88;;
26822;SDS011;14852;51.910;8.878;2023-06-26T11:48:52;4.43;;;3.95;;
26822;SDS011;14852;51.910;8.878;2023-06-26T11:51:19;6.47;;;3.83;;
26822;SDS011;14852;51.910;8.878;2023-06-26T11:53:47;4.70;;;3.95;;
26822;SDS011;14852;51.910;8.878;2023-06-26T11:56:14;6.30;;;4.00;;
26822;SDS011;14852;51.910;8.878;2023-06-26T12:01:45;5.72;;;3.80;;
26822;SDS011;14852;51.910;8.878;2023-06-26T12:04:12;4.18;;;3.47;;
26822;SDS011;14852;51.910;8.878;2023-06-26T12:06:51;5.95;;;3.97;;
26822;SDS011;14852;51.910;8.878;2023-06-26T12:09:25;4.25;;;3.42;;
26822;SDS011;14852;51.910;8.878;2023-06-26T12:11:53;4.78;;;3.08;;
26822;SDS011;14852;51.910;8.878;2023-06-26T12:14:22;4.35;;;3.50;;
26822;SDS011;14852;51.910;8.878;2023-06-26T12:16:50;3.53;;;3.17;;
26822;SDS011;14852;51.910;8.878;2023-06-26T12:19:17;4.78;;;2.95;;
26822;SDS011;14852;51.910;8.878;2023-06-26T12:21:52;6.28;;;3.22;;
26822;SDS011;14852;51.910;8.878;2023-06-26T12:24:19;3.50;;;2.92;;
26822;SDS011;14852;51.910;8.878;2023-06-26T12:26:49;4.18;;;3.20;;
26822;SDS011;14852;51.910;8.878;2023-06-26T12:29:21;6.40;;;3.15;;
26822;SDS011;14852;51.910;8.878;2023-06-26T12:31:56;3.47;;;2.75;;
26822;SDS011;14852;51.910;8.878;2023-06-26T12:34:26;4.45;;;3.10;;
26822;SDS011;14852;51.910;8.878;2023-06-26T12:36:59;3.65;;;2.83;;
26822;SDS011;14852;51.910;8.878;2023-06-26T12:39:55;4.22;;;3.28;;
26822;SDS011;14852;51.910;8.878;2023-06-26T12:42:26;4.05;;;3.10;;
26822;SDS011;14852;51.910;8.878;2023-06-26T12:44:53;5.40;;;3.33;;
26822;SDS011;14852;51.910;8.878;2023-06-26T12:47:25;3.55;;;2.65;;
26822;SDS011;14852;51.910;8.878;2023-06-26T12:49:53;3.95;;;2.70;;
26822;SDS011;14852;51.910;8.878;2023-06-26T12:52:19;4.63;;;3.22;;
26822;SDS011;14852;51.910;8.878;2023-06-26T12:54:46;3.33;;;2.63;;
26822;SDS011;14852;51.910;8.878;2023-06-26T12:57:16;6.05;;;3.47;;
26822;SDS011;14852;51.910;8.878;2023-06-26T12:59:42;3.40;;;2.75;;
26822;SDS011;14852;51.910;8.878;2023-06-26T13:02:08;4.28;;;3.35;;
26822;SDS011;14852;51.910;8.878;2023-06-26T13:04:36;4.05;;;2.97;;
26822;SDS011;14852;51.910;8.878;2023-06-26T13:07:05;4.13;;;3.25;;
26822;SDS011;14852;51.910;8.878;2023-06-26T13:09:32;4.35;;;2.45;;
26822;SDS011;14852;51.910;8.878;2023-06-26T13:12:00;4.22;;;2.85;;
26822;SDS011;14852;51.910;8.878;2023-06-26T13:14:28;3.53;;;3.22;;
26822;SDS011;14852;51.910;8.878;2023-06-26T13:16:55;3.03;;;2.53;;
26822;SDS011;14852;51.910;8.878;2023-06-26T13:19:20;5.90;;;3.17;;
26822;SDS011;14852;51.910;8.878;2023-06-26T13:21:46;4.78;;;2.72;;
26822;SDS011;14852;51.910;8.878;2023-06-26T13:24:12;3.53;;;2.75;;
26822;SDS011;14852;51.910;8.878;2023-06-26T13:26:38;4.13;;;2.78;;
26822;SDS011;14852;51.910;8.878;2023-06-26T13:29:04;2.50;;;2.30;;
26822;SDS011;14852;51.910;8.878;2023-06-26T13:31:30;5.25;;;2.58;;
26822;SDS011;14852;51.910;8.878;2023-06-26T13:33:57;3.30;;;2.60;;
26822;SDS011;14852;51.910;8.878;2023-06-26T13:36:24;4.22;;;2.58;;
26822;SDS011;14852;51.910;8.878;2023-06-26T13:38:50;4.13;;;2.38;;
26822;SDS011;14852;51.910;8.878;2023-06-26T13:41:20;2.75;;;2.35;;
26822;SDS011;14852;51.910;8.878;2023-06-26T13:43:50;3.15;;;2.20;;
26822;SDS011;14852;51.910;8.878;2023-06-26T13:46:16;4.00;;;2.67;;
26822;SDS011;14852;51.910;8.878;2023-06-26T13:48:43;2.92;;;2.30;;
26822;SDS011;14852;51.910;8.878;2023-06-26T13:51:09;3.22;;;2.80;;
26822;SDS011;14852;51.910;8.878;2023-06-26T13:53:35;4.78;;;2.80;;
26822;SDS011;14852;51.910;8.878;2023-06-26T13:56:01;4.13;;;2.63;;
26822;SDS011;14852;51.910;8.878;2023-06-26T13:58:27;3.90;;;3.20;;
26822;SDS011;14852;51.910;8.878;2023-06-26T14:00:55;5.65;;;2.60;;
26822;SDS011;14852;51.910;8.878;2023-06-26T14:03:20;3.25;;;2.90;;
26822;SDS011;14852;51.910;8.878;2023-06-26T14:05:46;3.03;;;2.65;;
26822;SDS011;14852;51.910;8.878;2023-06-26T14:08:13;5.53;;;2.83;;
26822;SDS011;14852;51.910;8.878;2023-06-26T14:10:39;4.05;;;3.05;;
26822;SDS011;14852;51.910;8.878;2023-06-26T14:13:04;3.67;;;2.47;;
26822;SDS011;14852;51.910;8.878;2023-06-26T14:15:30;2.70;;;2.17;;
26822;SDS011;14852;51.910;8.878;2023-06-26T14:17:57;5.53;;;2.90;;
26822;SDS011;14852;51.910;8.878;2023-06-26T14:20:24;3.00;;;2.60;;
26822;SDS011;14852;51.910;8.878;2023-06-26T14:22:50;4.07;;;2.72;;
26822;SDS011;14852;51.910;8.878;2023-06-26T14:25:16;4.35;;;2.85;;
26822;SDS011;14852;51.910;8.878;2023-06-26T14:27:42;2.88;;;2.55;;
26822;SDS011;14852;51.910;8.878;2023-06-26T14:30:08;7.93;;;2.92;;
26822;SDS011;14852;51.910;8.878;2023-06-26T14:32:34;3.40;;;2.95;;
26822;SDS011;14852;51.910;8.878;2023-06-26T14:35:01;3.05;;;2.30;;
26822;SDS011;14852;51.910;8.878;2023-06-26T14:37:29;3.92;;;3.20;;
26822;SDS011;14852;51.910;8.878;2023-06-26T14:39:56;3.15;;;2.70;;
26822;SDS011;14852;51.910;8.878;2023-06-26T14:42:23;5.15;;;2.53;;
26822;SDS011;14852;51.910;8.878;2023-06-26T14:44:49;4.45;;;2.83;;
26822;SDS011;14852;51.910;8.878;2023-06-26T14:47:16;5.65;;;2.83;;
26822;SDS011;14852;51.910;8.878;2023-06-26T14:49:42;4.45;;;2.83;;
26822;SDS011;14852;51.910;8.878;2023-06-26T14:52:08;3.25;;;2.53;;
26822;SDS011;14852;51.910;8.878;2023-06-26T14:54:34;2.90;;;2.50;;
26822;SDS011;14852;51.910;8.878;2023-06-26T14:57:04;5.57;;;2.55;;
26822;SDS011;14852;51.910;8.878;2023-06-26T14:59:31;4.13;;;2.58;;
26822;SDS011;14852;51.910;8.878;2023-06-26T15:01:57;3.25;;;2.95;;
26822;SDS011;14852;51.910;8.878;2023-06-26T15:04:23;4.20;;;2.63;;
26822;SDS011;14852;51.910;8.878;2023-06-26T15:06:49;3.08;;;2.55;;
26822;SDS011;14852;51.910;8.878;2023-06-26T15:09:15;4.05;;;2.42;;
26822;SDS011;14852;51.910;8.878;2023-06-26T15:11:40;3.58;;;2.55;;